Time;durP1;ratioP1;P1;durP2;ratioP2;P2;SDS_P1;SDS_P2;PMS_P1;PMS_P2;Temp;Humidity;BMP_temperature;BMP_pressure;BME280_temperature;BME280_humidity;BME280_pressure;Samples;Min_cycle;Max_cycle;Signal;HPM_P1;HPM_P2
2023/06/25 00:01:08;;;;;;;;;5.25;5.25;;;;;23.37;63.27;102081.06;5037737;28;8844;-67
2023/06/25 00:03:35;;;;;;;;;5.50;5.50;;;;;23.32;63.50;102071.91;5044129;28;8837;-68
2023/06/25 00:06:02;;;;;;;;;4.50;3.75;;;;;23.32;63.34;102072.75;5043513;28;8833;-68
2023/06/25 00:08:28;;;;;;;;;6.75;6.75;;;;;23.33;62.96;102074.41;5061147;28;8856;-67
2023/06/25 00:10:55;;;;;;;;;4.00;4.00;;;;;23.32;63.02;102067.25;5057353;28;8919;-67
2023/06/25 00:13:21;;;;;;;;;4.00;4.00;;;;;23.30;62.91;102068.59;5060775;28;8845;-68
2023/06/25 00:15:48;;;;;;;;;4.00;3.00;;;;;23.32;62.80;102066.41;5061067;28;8825;-68
2023/06/25 00:18:14;;;;;;;;;5.00;4.00;;;;;23.33;62.68;102065.34;5041996;28;8866;-68
2023/06/25 00:20:41;;;;;;;;;5.00;5.00;;;;;23.34;62.67;102056.03;5046052;28;8844;-66
2023/06/25 00:23:08;;;;;;;;;2.75;2.00;;;;;23.33;62.35;102052.41;5062615;28;8931;-68
2023/06/25 00:25:35;;;;;;;;;6.50;4.75;;;;;23.35;62.41;102054.94;5055295;28;9666;-68
2023/06/25 00:28:01;;;;;;;;;4.00;3.50;;;;;23.31;62.32;102048.28;5045242;28;8857;-68
2023/06/25 00:30:28;;;;;;;;;7.00;6.75;;;;;23.28;62.44;102044.09;5048562;28;8866;-69
2023/06/25 00:32:55;;;;;;;;;10.25;10.25;;;;;23.23;61.78;102043.19;5047914;28;8846;-66
2023/06/25 00:35:26;;;;;;;;;4.00;4.00;;;;;23.12;62.58;102033.94;5062423;28;8809;-67
2023/06/25 00:37:57;;;;;;;;;3.50;3.00;;;;;23.10;62.47;102042.44;5031002;28;8833;-66
2023/06/25 00:40:25;;;;;;;;;5.00;5.00;;;;;23.06;62.62;102040.44;5056299;28;8975;-67
2023/06/25 00:42:56;;;;;;;;;4.00;4.00;;;;;23.09;62.55;102034.44;5063944;28;8838;-66
2023/06/25 00:45:24;;;;;;;;;3.50;3.00;;;;;23.10;62.55;102028.72;5050804;28;8811;-67
2023/06/25 00:47:52;;;;;;;;;5.50;5.50;;;;;23.11;62.53;102030.38;5044633;28;8801;-67
2023/06/25 00:50:21;;;;;;;;;7.75;7.00;;;;;23.02;62.47;102031.88;5042841;28;8870;-67
2023/06/25 00:52:51;;;;;;;;;5.00;5.00;;;;;23.03;62.71;102027.22;5052537;28;8867;-67
2023/06/25 00:55:19;;;;;;;;;5.00;4.75;;;;;23.03;62.79;102024.47;5034629;28;8857;-68
2023/06/25 00:57:46;;;;;;;;;5.50;5.50;;;;;23.05;62.68;102022.28;5038618;28;8828;-67
2023/06/25 01:00:14;;;;;;;;;3.75;3.75;;;;;23.06;62.86;102022.06;5060853;28;8919;-67
2023/06/25 01:02:48;;;;;;;;;3.00;3.00;;;;;23.07;62.68;102020.13;5061528;28;8934;-66
2023/06/25 01:05:15;;;;;;;;;5.00;5.00;;;;;23.05;62.51;102008.56;5058816;28;8825;-67
2023/06/25 01:07:44;;;;;;;;;7.00;6.00;;;;;23.03;62.65;102013.47;5046989;28;8860;-67
2023/06/25 01:10:12;;;;;;;;;7.50;6.75;;;;;23.00;62.54;102005.72;5058520;28;8864;-66
2023/06/25 01:12:39;;;;;;;;;7.00;5.50;;;;;22.97;62.68;102008.97;5020890;28;8860;-66
2023/06/25 01:15:06;;;;;;;;;6.00;6.00;;;;;22.93;62.68;102004.00;5035853;28;8821;-67
2023/06/25 01:17:33;;;;;;;;;6.50;6.25;;;;;22.92;62.74;102002.31;5047393;28;8857;-66
2023/06/25 01:19:59;;;;;;;;;4.50;4.50;;;;;22.90;62.58;102001.75;5041485;28;8848;-67
2023/06/25 01:22:30;;;;;;;;;3.75;3.50;;;;;22.89;62.71;101997.31;5058211;28;8825;-67
2023/06/25 01:24:58;;;;;;;;;2.00;2.00;;;;;22.88;62.49;101995.63;5045009;28;8831;-67
2023/06/25 01:27:25;;;;;;;;;5.25;5.00;;;;;22.88;62.70;101992.03;5051269;28;8806;-67
2023/06/25 01:29:52;;;;;;;;;5.00;5.00;;;;;22.85;62.86;101987.91;5059639;28;8935;-67
2023/06/25 01:32:18;;;;;;;;;9.25;7.00;;;;;22.84;62.74;101988.13;5043864;28;8985;-67
2023/06/25 01:34:45;;;;;;;;;4.00;4.00;;;;;22.79;62.75;101993.53;5043550;28;8922;-67
2023/06/25 01:37:17;;;;;;;;;6.25;6.25;;;;;22.77;62.77;101990.19;5064436;28;8868;-67
2023/06/25 01:39:49;;;;;;;;;7.00;7.00;;;;;22.74;62.53;101985.22;5063388;28;8899;-68
2023/06/25 01:42:15;;;;;;;;;5.50;4.00;;;;;22.69;62.69;101978.56;5069334;28;8834;-67
2023/06/25 01:44:42;;;;;;;;;7.25;7.00;;;;;22.68;62.48;101976.88;5057554;28;8846;-67
2023/06/25 01:47:08;;;;;;;;;9.00;8.50;;;;;22.56;62.57;101970.63;5044121;28;9607;-66
2023/06/25 01:49:35;;;;;;;;;7.25;6.25;;;;;22.55;62.75;101970.88;5061741;28;8806;-67
2023/06/25 01:52:02;;;;;;;;;8.00;6.00;;;;;22.56;62.83;101967.03;5045584;28;8880;-67
2023/06/25 01:54:29;;;;;;;;;7.00;7.00;;;;;22.58;62.55;101967.66;5028308;28;8838;-68
2023/06/25 01:56:56;;;;;;;;;4.50;4.50;;;;;22.58;62.22;101957.50;5050576;28;8854;-67
2023/06/25 01:59:23;;;;;;;;;7.00;7.00;;;;;22.50;62.02;101955.16;5038104;28;8901;-67
2023/06/25 02:01:49;;;;;;;;;8.50;8.50;;;;;22.45;62.78;101955.91;5036578;28;8868;-68
2023/06/25 02:04:16;;;;;;;;;9.50;7.00;;;;;22.48;62.55;101948.25;5042544;28;9687;-66
2023/06/25 02:06:42;;;;;;;;;5.00;5.00;;;;;22.48;62.62;101949.06;5046837;28;8852;-67
2023/06/25 02:09:09;;;;;;;;;6.75;3.75;;;;;22.46;62.77;101941.09;5056787;28;8963;-68
2023/06/25 02:11:36;;;;;;;;;9.00;6.50;;;;;22.45;62.72;101944.09;5041199;28;8894;-67
2023/06/25 02:14:03;;;;;;;;;9.50;7.25;;;;;22.40;62.61;101936.63;5058360;28;8828;-68
2023/06/25 02:16:30;;;;;;;;;6.00;5.00;;;;;22.38;63.08;101935.19;5044183;28;8830;-67
2023/06/25 02:18:58;;;;;;;;;8.00;6.50;;;;;22.40;63.12;101935.75;5055288;28;8834;-69
2023/06/25 02:21:25;;;;;;;;;8.75;7.75;;;;;22.41;62.88;101931.94;5054985;28;8813;-67
2023/06/25 02:23:51;;;;;;;;;9.00;6.00;;;;;22.41;63.05;101932.78;5033383;28;8833;-67
2023/06/25 02:26:18;;;;;;;;;5.25;4.25;;;;;22.43;62.98;101927.03;5059639;28;8818;-67
2023/06/25 02:28:44;;;;;;;;;6.75;6.00;;;;;22.41;62.87;101929.22;5051817;28;8816;-67
2023/06/25 02:31:11;;;;;;;;;10.25;9.00;;;;;22.39;63.00;101931.34;5054229;28;8818;-67
2023/06/25 02:33:38;;;;;;;;;7.50;7.00;;;;;22.39;62.89;101926.69;5041109;28;9518;-68
2023/06/25 02:36:04;;;;;;;;;6.00;5.75;;;;;22.37;62.94;101915.16;5046667;28;9501;-67
2023/06/25 02:38:31;;;;;;;;;11.50;9.25;;;;;22.34;63.18;101921.13;5061598;28;8807;-67
2023/06/25 02:40:57;;;;;;;;;8.00;7.75;;;;;22.33;63.27;101918.63;5050562;28;8825;-68
2023/06/25 02:43:24;;;;;;;;;8.75;8.25;;;;;22.30;63.46;101921.88;5037389;28;8922;-67
2023/06/25 02:45:51;;;;;;;;;7.50;7.50;;;;;22.27;63.36;101908.63;5058674;28;8813;-67
2023/06/25 02:48:19;;;;;;;;;5.50;5.50;;;;;22.25;63.50;101917.13;5062822;28;8962;-67
2023/06/25 02:50:46;;;;;;;;;5.75;5.75;;;;;22.20;63.31;101922.50;5031919;28;9539;-67
2023/06/25 02:53:13;;;;;;;;;8.75;8.00;;;;;22.15;63.50;101914.19;5039069;28;8827;-67
2023/06/25 02:55:40;;;;;;;;;5.00;5.00;;;;;22.13;63.41;101908.13;5061975;28;8827;-66
2023/06/25 02:58:07;;;;;;;;;7.75;5.75;;;;;22.06;63.57;101910.97;5053820;28;8951;-66
2023/06/25 03:00:35;;;;;;;;;6.75;6.50;;;;;22.03;63.30;101905.97;5045464;28;8854;-68
2023/06/25 03:03:02;;;;;;;;;7.00;7.00;;;;;22.00;63.29;101903.75;5043420;28;8868;-68
2023/06/25 03:05:29;;;;;;;;;8.50;6.75;;;;;22.00;63.29;101897.38;5043574;28;8873;-68
2023/06/25 03:07:57;;;;;;;;;7.50;7.25;;;;;21.98;63.27;101898.47;5035112;28;8822;-67
2023/06/25 03:10:27;;;;;;;;;10.00;10.00;;;;;21.96;63.14;101897.06;5069438;28;8830;-67
2023/06/25 03:12:55;;;;;;;;;8.00;7.00;;;;;21.93;63.28;101897.56;5058071;28;8832;-68
2023/06/25 03:15:22;;;;;;;;;10.00;8.50;;;;;21.91;63.47;101902.44;5031351;28;8953;-69
2023/06/25 03:17:49;;;;;;;;;8.75;8.00;;;;;21.88;63.45;101894.72;5061701;28;8939;-68
2023/06/25 03:20:17;;;;;;;;;7.50;7.50;;;;;21.86;63.41;101902.34;5044899;28;8872;-68
2023/06/25 03:22:44;;;;;;;;;10.50;9.50;;;;;21.80;63.48;101890.47;5040240;28;8877;-67
2023/06/25 03:25:11;;;;;;;;;12.00;11.00;;;;;21.75;63.78;101890.34;5015659;28;8827;-68
2023/06/25 03:27:41;;;;;;;;;8.50;8.00;;;;;21.69;63.92;101889.41;5038396;28;8823;-68
2023/06/25 03:30:08;;;;;;;;;9.50;9.50;;;;;21.70;63.86;101888.31;5037367;28;9540;-68
2023/06/25 03:32:35;;;;;;;;;10.00;10.00;;;;;21.73;63.92;101887.03;5038853;28;8840;-68
2023/06/25 03:35:02;;;;;;;;;9.00;9.00;;;;;21.71;63.60;101887.28;5039303;28;8851;-67
2023/06/25 03:37:30;;;;;;;;;8.25;7.25;;;;;21.70;63.82;101885.59;5039476;28;8836;-67
2023/06/25 03:39:57;;;;;;;;;9.75;9.75;;;;;21.69;64.02;101883.94;5041750;28;8832;-68
2023/06/25 03:42:24;;;;;;;;;9.25;9.25;;;;;21.71;63.95;101884.53;5064346;28;8845;-67
2023/06/25 03:44:53;;;;;;;;;8.50;8.50;;;;;21.69;63.81;101881.19;5038680;28;9526;-67
2023/06/25 03:47:24;;;;;;;;;9.75;8.00;;;;;21.69;63.76;101885.84;5046840;28;8912;-68
2023/06/25 03:49:50;;;;;;;;;9.25;9.25;;;;;21.68;64.00;101885.00;5039919;28;8832;-67
2023/06/25 03:52:17;;;;;;;;;11.00;10.50;;;;;21.68;64.18;101879.53;5041368;28;8877;-67
2023/06/25 03:54:43;;;;;;;;;12.00;12.00;;;;;21.68;64.09;101875.97;5042261;28;8883;-68
2023/06/25 03:57:11;;;;;;;;;10.00;10.00;;;;;21.68;63.98;101885.00;5050654;28;8900;-68
2023/06/25 03:59:37;;;;;;;;;7.00;7.00;;;;;21.62;64.21;101879.66;5042030;28;8816;-68
2023/06/25 04:02:05;;;;;;;;;8.50;8.50;;;;;21.61;64.43;101878.84;5038432;28;8834;-67
2023/06/25 04:04:32;;;;;;;;;10.25;8.75;;;;;21.60;64.14;101881.81;5042295;28;8844;-67
2023/06/25 04:06:58;;;;;;;;;10.00;7.50;;;;;21.60;64.63;101874.44;5065760;28;8856;-67
2023/06/25 04:09:25;;;;;;;;;8.50;8.50;;;;;21.71;64.54;101884.53;5034840;28;8830;-68
2023/06/25 04:11:51;;;;;;;;;3.00;3.00;;;;;21.84;64.17;101874.38;5050909;28;8821;-67
2023/06/25 04:14:18;;;;;;;;;8.75;8.75;;;;;21.87;64.18;101884.81;5042050;28;8794;-66
2023/06/25 04:16:46;;;;;;;;;9.00;9.00;;;;;21.82;64.03;101885.56;5061191;28;8853;-67
2023/06/25 04:19:12;;;;;;;;;12.00;11.00;;;;;21.80;64.05;101881.41;5057622;28;8813;-67
2023/06/25 04:21:39;;;;;;;;;8.50;8.50;;;;;21.78;64.29;101881.63;5049960;28;8841;-67
2023/06/25 04:24:06;;;;;;;;;8.00;8.00;;;;;21.77;64.35;101882.72;5068075;28;8830;-68
2023/06/25 04:26:33;;;;;;;;;7.25;7.25;;;;;21.76;64.35;101880.22;5043258;28;8826;-67
2023/06/25 04:28:59;;;;;;;;;7.75;6.50;;;;;21.74;64.16;101883.19;5054061;28;8814;-67
2023/06/25 04:31:26;;;;;;;;;7.25;7.00;;;;;21.71;64.64;101884.53;5036652;28;8824;-67
2023/06/25 04:33:54;;;;;;;;;9.50;7.25;;;;;21.70;64.46;101877.38;5053486;28;8834;-66
2023/06/25 04:36:22;;;;;;;;;10.00;10.00;;;;;21.69;64.59;101869.41;5045479;28;8916;-65
2023/06/25 04:38:55;;;;;;;;;7.00;6.25;;;;;21.70;64.58;101869.16;5027067;28;8836;-67
2023/06/25 04:41:25;;;;;;;;;7.75;7.75;;;;;21.70;64.53;101873.78;5054884;28;8891;-67
2023/06/25 04:43:51;;;;;;;;;9.00;9.00;;;;;21.70;64.57;101874.63;5041447;28;8827;-67
2023/06/25 04:46:18;;;;;;;;;16.75;12.25;;;;;21.69;64.52;101877.63;5038982;28;8852;-68
2023/06/25 04:48:45;;;;;;;;;16.50;12.75;;;;;21.60;64.55;101871.69;5042645;28;8849;-67
2023/06/25 04:51:13;;;;;;;;;11.50;9.00;;;;;21.58;64.76;101884.78;5053242;28;8844;-67
2023/06/25 04:53:40;;;;;;;;;11.75;10.75;;;;;21.58;64.70;101881.22;5058065;28;8813;-67
2023/06/25 04:56:07;;;;;;;;;9.25;9.25;;;;;21.57;64.71;101879.56;5040589;28;8828;-67
2023/06/25 04:58:35;;;;;;;;;16.75;14.00;;;;;21.56;65.15;101881.47;5065134;28;8842;-68
2023/06/25 05:01:03;;;;;;;;;9.25;9.25;;;;;21.58;64.90;101875.75;5050384;28;9515;-68
2023/06/25 05:03:29;;;;;;;;;10.50;10.50;;;;;21.62;64.93;101866.78;5054293;28;8832;-68
2023/06/25 05:05:57;;;;;;;;;9.50;8.25;;;;;21.65;64.87;101863.56;5063757;28;8838;-68
2023/06/25 05:08:24;;;;;;;;;13.25;10.75;;;;;21.71;64.76;101865.34;5071543;28;8811;-68
2023/06/25 05:10:50;;;;;;;;;12.50;11.00;;;;;21.73;64.64;101865.91;5044665;28;8873;-67
2023/06/25 05:13:17;;;;;;;;;11.00;11.00;;;;;21.73;64.61;101870.56;5064994;28;8813;-66
2023/06/25 05:15:43;;;;;;;;;15.75;15.00;;;;;21.62;64.83;101864.03;5033956;28;8824;-67
2023/06/25 05:18:10;;;;;;;;;16.25;16.25;;;;;21.58;65.03;101864.78;5046339;28;8809;-68
2023/06/25 05:20:38;;;;;;;;;12.50;11.00;;;;;21.61;64.98;101867.88;5061062;28;8938;-67
2023/06/25 05:23:06;;;;;;;;;11.25;11.25;;;;;21.65;64.62;101871.78;5052127;28;8834;-67
2023/06/25 05:25:33;;;;;;;;;10.75;10.50;;;;;;;;5063501;28;8837;-67
2023/06/25 05:28:03;;;;;;;;;15.25;12.25;;;;;21.72;64.54;101877.13;5066293;28;8901;-68
2023/06/25 05:30:31;;;;;;;;;12.25;10.25;;;;;21.81;64.57;101872.94;5061444;28;8819;-67
2023/06/25 05:33:01;;;;;;;;;13.50;10.75;;;;;21.93;64.42;101879.19;5064121;28;8857;-67
2023/06/25 05:35:28;;;;;;;;;9.50;9.25;;;;;22.15;64.42;101879.34;5060794;28;8837;-67
2023/06/25 05:37:58;;;;;;;;;11.00;10.75;;;;;22.40;63.70;101875.41;5053446;28;9367;-67
2023/06/25 05:40:28;;;;;;;;;10.75;10.75;;;;;22.67;63.23;101872.84;5042142;28;8832;-67
2023/06/25 05:42:55;;;;;;;;;10.00;8.75;;;;;22.90;62.67;101866.34;5058858;28;8858;-68
2023/06/25 05:45:22;;;;;;;;;9.75;9.75;;;;;23.07;61.64;101866.34;5044556;28;9625;-67
2023/06/25 05:47:48;;;;;;;;;8.25;8.25;;;;;23.22;61.18;101868.47;5061024;28;8831;-68
2023/06/25 05:50:15;;;;;;;;;11.75;10.00;;;;;23.35;60.85;101870.84;5059951;28;8926;-68
2023/06/25 05:52:43;;;;;;;;;10.25;9.25;;;;;23.46;60.29;101875.38;5053695;28;8890;-68
2023/06/25 05:55:09;;;;;;;;;10.25;10.25;;;;;23.49;59.80;101865.78;5070203;28;8810;-67
2023/06/25 05:57:36;;;;;;;;;12.25;10.50;;;;;23.54;59.22;101863.13;5062674;28;8845;-67
2023/06/25 06:00:04;;;;;;;;;13.75;11.75;;;;;23.55;59.25;101864.78;5047095;28;8821;-67
2023/06/25 06:02:38;;;;;;;;;9.50;8.75;;;;;23.57;59.29;101857.09;5052847;28;8876;-66
2023/06/25 06:05:06;;;;;;;;;8.25;8.25;;;;;23.56;59.02;101856.25;5059544;28;8839;-66
2023/06/25 06:07:32;;;;;;;;;7.75;7.75;;;;;23.57;58.89;101857.91;5051543;28;8959;-67
2023/06/25 06:09:59;;;;;;;;;11.00;8.00;;;;;23.57;58.82;101849.66;5059748;28;8829;-67
2023/06/25 06:12:26;;;;;;;;;10.00;10.00;;;;;23.55;58.69;101849.09;5059479;28;8896;-68
2023/06/25 06:14:53;;;;;;;;;9.25;9.25;;;;;23.52;58.69;101857.88;5051243;28;8813;-67
2023/06/25 06:17:19;;;;;;;;;10.25;8.00;;;;;23.50;58.81;101851.81;5059797;28;8835;-67
2023/06/25 06:19:46;;;;;;;;;8.25;7.75;;;;;23.52;59.30;101857.03;5055742;28;8842;-68
2023/06/25 06:22:13;;;;;;;;;7.50;5.50;;;;;23.54;59.45;101863.94;5046129;28;8803;-67
2023/06/25 06:24:39;;;;;;;;;5.25;5.25;;;;;23.55;59.07;101857.34;5041914;28;8861;-68
2023/06/25 06:27:07;;;;;;;;;7.25;7.25;;;;;23.56;58.93;101859.00;5050891;28;8835;-67
2023/06/25 06:29:33;;;;;;;;;10.00;8.50;;;;;23.54;58.64;101861.19;5041194;28;8816;-68
2023/06/25 06:32:00;;;;;;;;;5.75;5.75;;;;;23.52;58.48;101854.28;5054236;28;8812;-67
2023/06/25 06:34:26;;;;;;;;;11.25;10.50;;;;;23.49;58.15;101852.88;5062400;28;8818;-68
2023/06/25 06:36:53;;;;;;;;;9.25;9.25;;;;;23.49;57.90;101849.28;5057239;28;8992;-66
2023/06/25 06:39:19;;;;;;;;;10.00;8.75;;;;;23.48;57.67;101848.47;5060495;28;8829;-67
2023/06/25 06:41:46;;;;;;;;;9.25;8.50;;;;;23.49;57.57;101847.38;5040669;28;8857;-66
2023/06/25 06:44:15;;;;;;;;;5.75;5.50;;;;;23.53;57.19;101851.28;5035219;28;8929;-67
2023/06/25 06:46:43;;;;;;;;;8.25;8.25;;;;;23.55;57.16;101843.63;5051903;28;8850;-68
2023/06/25 06:49:10;;;;;;;;;8.50;7.75;;;;;23.56;57.21;101848.03;5044460;28;8933;-67
2023/06/25 06:51:38;;;;;;;;;9.50;9.00;;;;;23.55;56.91;101843.63;5050067;28;8822;-67
2023/06/25 06:54:05;;;;;;;;;7.25;7.25;;;;;23.57;56.56;101844.16;5058040;28;8828;-67
2023/06/25 06:56:32;;;;;;;;;8.75;7.00;;;;;23.60;56.33;101840.91;5063239;28;8852;-66
2023/06/25 06:58:58;;;;;;;;;6.75;5.75;;;;;23.64;56.50;101842.06;5053591;28;8897;-66
2023/06/25 07:01:26;;;;;;;;;9.50;6.75;;;;;23.71;56.37;101836.41;5044396;28;8838;-67
2023/06/25 07:03:52;;;;;;;;;6.25;6.00;;;;;23.77;56.26;101840.03;5056103;28;9610;-67
2023/06/25 07:06:20;;;;;;;;;12.00;10.00;;;;;23.77;55.80;101829.84;5065570;28;8907;-67
2023/06/25 07:08:47;;;;;;;;;7.50;7.50;;;;;23.80;55.65;101831.28;5053168;28;8848;-68
2023/06/25 07:11:16;;;;;;;;;8.25;8.25;;;;;23.80;55.15;101823.84;5055505;28;8816;-67
2023/06/25 07:13:46;;;;;;;;;7.00;7.00;;;;;23.84;54.87;101832.41;5058176;28;8820;-67
2023/06/25 07:16:13;;;;;;;;;5.00;5.00;;;;;23.87;53.99;101837.41;5053718;28;8855;-68
2023/06/25 07:18:39;;;;;;;;;10.00;10.00;;;;;23.90;53.86;101839.63;5049578;28;8819;-66
2023/06/25 07:21:06;;;;;;;;;7.00;7.00;;;;;23.91;53.52;101836.63;5068580;28;8823;-67
2023/06/25 07:23:35;;;;;;;;;9.00;7.00;;;;;23.97;53.74;101834.75;5042678;28;9550;-68
2023/06/25 07:26:02;;;;;;;;;9.00;9.00;;;;;24.02;53.26;101834.78;5056576;28;9558;-67
2023/06/25 07:28:29;;;;;;;;;6.25;6.00;;;;;24.08;53.67;101836.50;5040563;28;8841;-67
2023/06/25 07:30:55;;;;;;;;;10.25;9.50;;;;;24.13;52.57;101827.47;5049764;28;8825;-66
2023/06/25 07:33:22;;;;;;;;;6.00;6.00;;;;;24.18;52.97;101830.25;5056959;28;8845;-66
2023/06/25 07:35:48;;;;;;;;;7.50;7.50;;;;;24.24;52.70;101829.22;5049312;28;8815;-66
2023/06/25 07:38:15;;;;;;;;;5.25;4.00;;;;;24.25;52.01;101821.81;5061557;28;8836;-67
2023/06/25 07:40:41;;;;;;;;;8.00;8.00;;;;;24.27;51.62;101820.47;5069122;28;8959;-66
2023/06/25 07:43:08;;;;;;;;;8.00;7.50;;;;;24.32;51.47;101814.16;5045390;28;8846;-66
2023/06/25 07:45:34;;;;;;;;;8.50;7.50;;;;;24.39;51.17;101810.13;5059371;28;8855;-67
2023/06/25 07:48:01;;;;;;;;;9.75;9.75;;;;;24.43;50.42;101810.44;5055466;28;8834;-67
2023/06/25 07:50:28;;;;;;;;;5.00;4.25;;;;;24.48;49.98;101812.41;5036777;28;8849;-67
2023/06/25 07:52:55;;;;;;;;;6.50;6.25;;;;;24.47;49.69;101811.56;5059880;28;8826;-67
2023/06/25 07:55:22;;;;;;;;;7.00;7.00;;;;;24.48;49.14;101804.97;5060958;28;8850;-67
2023/06/25 07:57:48;;;;;;;;;6.00;6.00;;;;;24.48;48.93;101802.22;5058065;28;8964;-66
2023/06/25 08:00:15;;;;;;;;;7.75;7.50;;;;;24.55;50.02;101800.06;5060308;28;8814;-67
2023/06/25 08:02:41;;;;;;;;;5.00;5.00;;;;;24.58;50.33;101796.75;5060318;28;8830;-68
2023/06/25 08:05:08;;;;;;;;;7.75;7.50;;;;;24.68;50.07;101793.25;5058794;28;8840;-66
2023/06/25 08:07:35;;;;;;;;;8.00;6.00;;;;;24.75;50.11;101798.53;5062400;28;8805;-67
2023/06/25 08:10:02;;;;;;;;;8.50;8.50;;;;;24.76;49.67;101800.19;5071136;28;9576;-67
2023/06/25 08:12:28;;;;;;;;;5.25;4.50;;;;;24.74;48.44;101789.44;5052518;28;8823;-66
2023/06/25 08:14:55;;;;;;;;;7.00;7.00;;;;;24.82;48.26;101794.44;5058129;28;8821;-66
2023/06/25 08:17:21;;;;;;;;;9.00;9.00;;;;;24.88;46.01;101789.81;5060915;28;8841;-67
2023/06/25 08:19:48;;;;;;;;;7.00;6.50;;;;;24.89;46.64;101800.53;5064580;28;8822;-67
2023/06/25 08:22:14;;;;;;;;;6.00;6.00;;;;;24.91;47.25;101795.63;5064400;28;8907;-68
2023/06/25 08:24:41;;;;;;;;;7.75;6.50;;;;;24.95;47.46;101790.38;5059562;28;8853;-67
2023/06/25 08:27:07;;;;;;;;;8.00;7.50;;;;;25.00;46.95;101789.59;5057152;28;8867;-67
2023/06/25 08:29:34;;;;;;;;;11.75;10.00;;;;;25.02;46.69;101788.22;5067332;28;8940;-66
2023/06/25 08:32:00;;;;;;;;;8.50;8.50;;;;;25.07;46.83;101787.41;5020248;28;9550;-68
2023/06/25 08:34:27;;;;;;;;;8.00;8.00;;;;;25.07;47.01;101782.72;5064726;28;8919;-68
2023/06/25 08:36:55;;;;;;;;;6.00;6.00;;;;;25.10;47.36;101776.69;5042588;28;8801;-67
2023/06/25 08:39:21;;;;;;;;;8.00;7.50;;;;;25.10;46.70;101779.47;5044170;28;9615;-67
2023/06/25 08:41:49;;;;;;;;;8.25;7.25;;;;;25.12;46.94;101774.53;5054265;28;8832;-66
2023/06/25 08:44:16;;;;;;;;;11.25;9.75;;;;;25.11;46.50;101767.34;5031026;28;8846;-66
2023/06/25 08:46:49;;;;;;;;;9.00;7.50;;;;;25.18;46.59;101769.03;5070870;28;8846;-66
2023/06/25 08:49:17;;;;;;;;;7.00;7.00;;;;;25.19;46.62;101770.69;5050333;28;8835;-67
2023/06/25 08:51:43;;;;;;;;;5.25;5.25;;;;;25.23;46.39;101766.28;5056795;28;8814;-67
2023/06/25 08:54:10;;;;;;;;;8.00;8.00;;;;;25.34;46.10;101757.78;5049380;28;9506;-67
2023/06/25 08:56:36;;;;;;;;;11.50;11.00;;;;;25.42;45.26;101766.63;5069981;28;8879;-67
2023/06/25 08:59:03;;;;;;;;;6.25;6.25;;;;;25.50;45.61;101769.69;5072423;28;8826;-67
2023/06/25 09:01:29;;;;;;;;;6.25;5.75;;;;;25.51;45.27;101760.31;5051009;28;8822;-67
2023/06/25 09:03:56;;;;;;;;;6.75;6.75;;;;;25.58;44.75;101760.88;5081018;28;9056;-67
2023/06/25 09:06:22;;;;;;;;;11.25;7.75;;;;;25.61;43.90;101760.34;5071594;28;8838;-67
2023/06/25 09:08:49;;;;;;;;;8.00;8.00;;;;;25.64;43.45;101765.31;5054699;28;8854;-67
2023/06/25 09:11:15;;;;;;;;;9.75;6.50;;;;;25.69;43.66;101760.91;5079615;28;8799;-67
2023/06/25 09:13:43;;;;;;;;;8.00;6.50;;;;;25.76;43.12;101756.75;5056560;28;9714;-66
2023/06/25 09:16:10;;;;;;;;;6.25;6.25;;;;;25.80;42.75;101762.59;5072410;28;8792;-65
2023/06/25 09:18:37;;;;;;;;;8.75;7.00;;;;;25.83;41.84;101759.28;5056875;28;9505;-67
2023/06/25 09:21:07;;;;;;;;;11.25;10.25;;;;;25.89;41.74;101750.75;5034161;28;8813;-67
2023/06/25 09:23:35;;;;;;;;;6.00;6.00;;;;;25.92;42.24;101757.63;5075138;28;8881;-67
2023/06/25 09:26:09;;;;;;;;;10.50;9.00;;;;;25.99;41.40;101758.19;5071208;28;8843;-66
2023/06/25 09:28:49;;;;;;;;;6.50;6.50;;;;;26.07;41.20;101752.13;5056176;28;8810;-67
2023/06/25 09:31:16;;;;;;;;;7.00;6.75;;;;;26.11;40.62;101750.47;5063440;28;8802;-67
2023/06/25 09:33:54;;;;;;;;;6.75;6.75;;;;;26.21;41.92;101743.28;5049418;28;8858;-68
2023/06/25 09:36:21;;;;;;;;;6.25;5.75;;;;;26.24;42.80;101745.47;5078572;28;8903;-67
2023/06/25 09:39:05;;;;;;;;;9.50;7.75;;;;;26.28;42.00;101741.88;5064938;28;8811;-67
2023/06/25 09:41:37;;;;;;;;;9.50;8.00;;;;;26.36;41.94;101744.09;5076578;28;8828;-66
2023/06/25 09:44:05;;;;;;;;;8.00;7.00;;;;;26.37;41.69;101739.38;5074003;28;8856;-68
2023/06/25 09:46:34;;;;;;;;;5.25;5.25;;;;;26.35;42.08;101747.97;5053138;28;8850;-67
2023/06/25 09:49:02;;;;;;;;;4.25;4.25;;;;;26.34;41.98;101739.97;5033429;28;8840;-68
2023/06/25 09:51:55;;;;;;;;;7.00;6.00;;;;;26.38;42.66;101735.53;5056443;28;8837;-67
2023/06/25 09:54:23;;;;;;;;;5.00;5.00;;;;;26.37;42.44;101745.75;5052654;28;10017;-68
2023/06/25 09:56:51;;;;;;;;;7.50;6.00;;;;;26.37;41.30;101742.16;5070679;28;8833;-68
2023/06/25 09:59:18;;;;;;;;;3.00;3.00;;;;;26.42;40.00;101733.06;5072210;28;8807;-67
2023/06/25 10:01:47;;;;;;;;;5.25;5.25;;;;;26.47;38.90;101728.38;5067063;28;8862;-67
2023/06/25 10:04:14;;;;;;;;;5.50;5.50;;;;;26.54;38.78;101730.84;5058692;28;9525;-66
2023/06/25 10:06:40;;;;;;;;;5.25;4.25;;;;;26.54;38.42;101737.19;5070694;28;8819;-66
2023/06/25 10:09:07;;;;;;;;;5.50;4.75;;;;;26.59;38.45;101737.19;5080727;28;8907;-68
2023/06/25 10:11:35;;;;;;;;;6.50;6.25;;;;;26.63;39.09;101726.41;5073156;28;8869;-66
2023/06/25 10:14:04;;;;;;;;;4.75;4.75;;;;;26.66;38.71;101720.31;5082366;28;8834;-68
2023/06/25 10:16:32;;;;;;;;;3.75;3.75;;;;;26.67;39.49;101726.66;5071760;28;8818;-67
2023/06/25 10:19:05;;;;;;;;;4.75;4.75;;;;;26.66;39.02;101719.47;5049965;28;8900;-68
2023/06/25 10:21:32;;;;;;;;;5.25;5.25;;;;;26.68;39.29;101728.31;5079107;28;8832;-68
2023/06/25 10:24:01;;;;;;;;;5.00;4.25;;;;;26.74;39.29;101725.25;5072802;28;8830;-68
2023/06/25 10:26:29;;;;;;;;;5.00;5.00;;;;;26.77;38.50;101727.44;5047532;28;10195;-69
2023/06/25 10:28:59;;;;;;;;;5.50;5.50;;;;;26.78;38.42;101717.22;5069199;28;8888;-69
2023/06/25 10:31:26;;;;;;;;;5.00;4.00;;;;;26.84;38.13;101710.56;5069666;28;8806;-68
2023/06/25 10:34:06;;;;;;;;;5.00;5.00;;;;;26.90;38.04;101706.69;5068862;28;8846;-68
2023/06/25 10:36:33;;;;;;;;;3.50;3.50;;;;;26.95;37.92;101701.13;5077980;28;8859;-68
2023/06/25 10:39:00;;;;;;;;;5.00;3.00;;;;;27.00;37.90;101692.81;5075717;28;8818;-68
2023/06/25 10:41:28;;;;;;;;;5.00;5.00;;;;;27.00;38.27;101692.81;5051203;28;8800;-68
2023/06/25 10:43:56;;;;;;;;;5.00;4.75;;;;;27.10;37.60;101691.94;5070327;28;8955;-67
2023/06/25 10:46:30;;;;;;;;;5.00;5.00;;;;;27.10;38.49;101684.50;5064671;28;8895;-67
2023/06/25 10:49:01;;;;;;;;;5.00;5.00;;;;;27.09;38.43;101691.09;5072065;28;8896;-68
2023/06/25 10:51:28;;;;;;;;;5.00;5.00;;;;;27.06;37.17;101682.56;5044217;28;9574;-68
2023/06/25 10:53:56;;;;;;;;;3.75;3.75;;;;;27.05;37.44;101690.00;5050340;28;8838;-67
2023/06/25 10:56:23;;;;;;;;;0.50;0.50;;;;;27.13;38.45;101679.50;5058177;28;8840;-67
2023/06/25 10:58:57;;;;;;;;;4.25;4.25;;;;;27.21;38.50;101678.91;5058499;28;8833;-67
2023/06/25 11:01:24;;;;;;;;;4.25;4.25;;;;;27.25;39.18;101674.47;5056824;28;8827;-68
2023/06/25 11:03:51;;;;;;;;;4.00;4.00;;;;;27.25;38.21;101674.47;5064553;28;8838;-68
2023/06/25 11:06:18;;;;;;;;;3.75;3.75;;;;;27.29;38.03;101670.00;5056204;28;8872;-68
2023/06/25 11:08:49;;;;;;;;;2.75;2.25;;;;;27.37;38.35;101663.88;5057582;28;8858;-68
2023/06/25 11:11:15;;;;;;;;;5.75;5.25;;;;;27.37;37.84;101663.88;5069091;28;8826;-68
2023/06/25 11:13:42;;;;;;;;;4.75;4.00;;;;;27.39;37.11;101658.03;5066945;28;8960;-68
2023/06/25 11:16:08;;;;;;;;;8.00;5.00;;;;;27.45;37.85;101665.22;5052405;28;9490;-68
2023/06/25 11:18:36;;;;;;;;;5.75;5.75;;;;;27.48;38.00;101659.09;5075445;28;8838;-69
2023/06/25 11:21:05;;;;;;;;;6.00;4.50;;;;;27.61;38.42;101656.50;5056647;28;8813;-68
2023/06/25 11:23:32;;;;;;;;;4.50;4.00;;;;;27.64;37.74;101651.50;5061017;28;8834;-68
2023/06/25 11:26:03;;;;;;;;;5.00;5.00;;;;;27.67;37.90;101642.63;5061200;28;8873;-68
2023/06/25 11:28:29;;;;;;;;;6.25;5.00;;;;;27.71;37.24;101643.69;5067388;28;8814;-66
2023/06/25 11:30:59;;;;;;;;;8.75;6.00;;;;;27.80;37.59;101640.06;5047422;28;8843;-66
2023/06/25 11:33:25;;;;;;;;;5.50;4.50;;;;;27.87;37.95;101636.94;5053582;28;8827;-68